sensor_id;sensor_type;location;lat;lon;timestamp;P1;durP1;ratioP1;P2;durP2;ratioP2
151;SDS011;68;48.792;9.164;2023-11-21T00:00:21;36.78;;;17.38;;
151;SDS011;68;48.792;9.164;2023-11-21T00:02:48;35.58;;;16.98;;
151;SDS011;68;48.792;9.164;2023-11-21T00:05:16;44.10;;;17.40;;
151;SDS011;68;48.792;9.164;2023-11-21T00:07:43;37.35;;;17.83;;
151;SDS011;68;48.792;9.164;2023-11-21T00:10:10;35.50;;;18.05;;
151;SDS011;68;48.792;9.164;2023-11-21T00:12:39;34.95;;;17.85;;
151;SDS011;68;48.792;9.164;2023-11-21T00:15:07;36.25;;;17.48;;
151;SDS011;68;48.792;9.164;2023-11-21T00:17:35;41.03;;;17.27;;
151;SDS011;68;48.792;9.164;2023-11-21T00:20:03;39.60;;;17.65;;
151;SDS011;68;48.792;9.164;2023-11-21T00:22:33;33.55;;;17.92;;
151;SDS011;68;48.792;9.164;2023-11-21T00:24:59;35.38;;;18.67;;
151;SDS011;68;48.792;9.164;2023-11-21T00:27:28;32.85;;;17.40;;
151;SDS011;68;48.792;9.164;2023-11-21T00:29:54;37.27;;;18.63;;
151;SDS011;68;48.792;9.164;2023-11-21T00:32:21;35.13;;;16.70;;
151;SDS011;68;48.792;9.164;2023-11-21T00:34:47;39.78;;;21.15;;
151;SDS011;68;48.792;9.164;2023-11-21T00:37:14;54.90;;;25.95;;
151;SDS011;68;48.792;9.164;2023-11-21T00:39:42;45.75;;;17.92;;
151;SDS011;68;48.792;9.164;2023-11-21T00:42:09;35.13;;;16.23;;
151;SDS011;68;48.792;9.164;2023-11-21T00:44:37;37.47;;;16.83;;
151;SDS011;68;48.792;9.164;2023-11-21T00:47:04;36.63;;;18.08;;
151;SDS011;68;48.792;9.164;2023-11-21T00:49:33;37.22;;;17.65;;
151;SDS011;68;48.792;9.164;2023-11-21T00:51:59;35.28;;;16.42;;
151;SDS011;68;48.792;9.164;2023-11-21T00:54:26;37.03;;;18.15;;
151;SDS011;68;48.792;9.164;2023-11-21T00:56:55;34.25;;;17.73;;
151;SDS011;68;48.792;9.164;2023-11-21T00:59:22;35.35;;;17.30;;
151;SDS011;68;48.792;9.164;2023-11-21T01:01:49;42.15;;;19.58;;
151;SDS011;68;48.792;9.164;2023-11-21T01:04:16;42.70;;;20.20;;
151;SDS011;68;48.792;9.164;2023-11-21T01:06:43;41.63;;;18.02;;
151;SDS011;68;48.792;9.164;2023-11-21T01:09:10;37.53;;;18.45;;
151;SDS011;68;48.792;9.164;2023-11-21T01:11:37;35.65;;;16.08;;
151;SDS011;68;48.792;9.164;2023-11-21T01:14:06;35.83;;;17.30;;
151;SDS011;68;48.792;9.164;2023-11-21T01:16:33;37.55;;;21.92;;
151;SDS011;68;48.792;9.164;2023-11-21T01:19:00;39.15;;;17.13;;
151;SDS011;68;48.792;9.164;2023-11-21T01:21:29;34.67;;;17.23;;
151;SDS011;68;48.792;9.164;2023-11-21T01:23:56;39.97;;;18.13;;
151;SDS011;68;48.792;9.164;2023-11-21T01:26:23;35.78;;;18.17;;
151;SDS011;68;48.792;9.164;2023-11-21T01:28:50;33.95;;;17.55;;
151;SDS011;68;48.792;9.164;2023-11-21T01:31:18;36.63;;;17.70;;
151;SDS011;68;48.792;9.164;2023-11-21T01:33:45;34.22;;;15.43;;
151;SDS011;68;48.792;9.164;2023-11-21T01:36:12;35.58;;;15.90;;
151;SDS011;68;48.792;9.164;2023-11-21T01:38:39;36.40;;;16.73;;
151;SDS011;68;48.792;9.164;2023-11-21T01:41:05;33.47;;;18.13;;
151;SDS011;68;48.792;9.164;2023-11-21T01:43:32;33.90;;;15.18;;
151;SDS011;68;48.792;9.164;2023-11-21T01:45:59;31.58;;;14.90;;
151;SDS011;68;48.792;9.164;2023-11-21T01:48:28;34.30;;;16.60;;
151;SDS011;68;48.792;9.164;2023-11-21T01:50:54;31.17;;;15.30;;
151;SDS011;68;48.792;9.164;2023-11-21T01:53:23;32.88;;;17.98;;
151;SDS011;68;48.792;9.164;2023-11-21T01:55:52;32.70;;;15.65;;
151;SDS011;68;48.792;9.164;2023-11-21T01:58:20;28.98;;;12.60;;
151;SDS011;68;48.792;9.164;2023-11-21T02:00:47;31.90;;;15.35;;
151;SDS011;68;48.792;9.164;2023-11-21T02:03:16;30.95;;;14.02;;
151;SDS011;68;48.792;9.164;2023-11-21T02:05:44;33.90;;;14.90;;
151;SDS011;68;48.792;9.164;2023-11-21T02:08:11;31.52;;;15.48;;
151;SDS011;68;48.792;9.164;2023-11-21T02:10:37;35.35;;;15.00;;
151;SDS011;68;48.792;9.164;2023-11-21T02:13:05;29.80;;;16.10;;
151;SDS011;68;48.792;9.164;2023-11-21T02:15:32;36.83;;;16.20;;
151;SDS011;68;48.792;9.164;2023-11-21T02:17:59;33.35;;;16.67;;
151;SDS011;68;48.792;9.164;2023-11-21T02:20:28;32.63;;;18.00;;
151;SDS011;68;48.792;9.164;2023-11-21T02:22:57;35.10;;;16.90;;
151;SDS011;68;48.792;9.164;2023-11-21T02:25:24;33.80;;;16.95;;
151;SDS011;68;48.792;9.164;2023-11-21T02:27:52;32.35;;;15.70;;
151;SDS011;68;48.792;9.164;2023-11-21T02:30:20;33.08;;;17.13;;
151;SDS011;68;48.792;9.164;2023-11-21T02:32:46;30.77;;;15.15;;
151;SDS011;68;48.792;9.164;2023-11-21T02:35:13;33.83;;;16.33;;
151;SDS011;68;48.792;9.164;2023-11-21T02:37:40;31.25;;;14.88;;
151;SDS011;68;48.792;9.164;2023-11-21T02:40:10;33.20;;;15.65;;
151;SDS011;68;48.792;9.164;2023-11-21T02:42:38;32.38;;;16.40;;
151;SDS011;68;48.792;9.164;2023-11-21T02:45:06;32.42;;;18.92;;
151;SDS011;68;48.792;9.164;2023-11-21T02:47:34;32.40;;;15.90;;
151;SDS011;68;48.792;9.164;2023-11-21T02:50:00;30.30;;;15.27;;
151;SDS011;68;48.792;9.164;2023-11-21T02:52:27;31.33;;;15.00;;
151;SDS011;68;48.792;9.164;2023-11-21T02:54:54;32.55;;;15.63;;
151;SDS011;68;48.792;9.164;2023-11-21T02:57:22;32.95;;;16.02;;
151;SDS011;68;48.792;9.164;2023-11-21T02:59:49;31.90;;;15.52;;
151;SDS011;68;48.792;9.164;2023-11-21T03:02:15;30.10;;;14.82;;
151;SDS011;68;48.792;9.164;2023-11-21T03:04:42;32.00;;;15.48;;
151;SDS011;68;48.792;9.164;2023-11-21T03:07:09;32.22;;;15.95;;
151;SDS011;68;48.792;9.164;2023-11-21T03:09:36;33.67;;;16.48;;
151;SDS011;68;48.792;9.164;2023-11-21T03:12:03;31.55;;;16.13;;
151;SDS011;68;48.792;9.164;2023-11-21T03:14:32;30.50;;;14.90;;
151;SDS011;68;48.792;9.164;2023-11-21T03:16:59;33.50;;;13.95;;
151;SDS011;68;48.792;9.164;2023-11-21T03:19:25;37.35;;;17.38;;
151;SDS011;68;48.792;9.164;2023-11-21T03:21:52;31.75;;;16.75;;
151;SDS011;68;48.792;9.164;2023-11-21T03:24:19;31.13;;;15.55;;
151;SDS011;68;48.792;9.164;2023-11-21T03:26:47;34.28;;;16.58;;
151;SDS011;68;48.792;9.164;2023-11-21T03:29:15;32.75;;;16.33;;
151;SDS011;68;48.792;9.164;2023-11-21T03:31:43;31.85;;;15.57;;
151;SDS011;68;48.792;9.164;2023-11-21T03:34:14;31.30;;;16.13;;
151;SDS011;68;48.792;9.164;2023-11-21T03:36:43;32.38;;;15.98;;
151;SDS011;68;48.792;9.164;2023-11-21T03:39:11;32.67;;;16.15;;
151;SDS011;68;48.792;9.164;2023-11-21T03:41:38;31.17;;;15.98;;
151;SDS011;68;48.792;9.164;2023-11-21T03:44:05;30.33;;;15.32;;
151;SDS011;68;48.792;9.164;2023-11-21T03:46:31;33.40;;;17.90;;
151;SDS011;68;48.792;9.164;2023-11-21T03:48:59;30.40;;;15.45;;
151;SDS011;68;48.792;9.164;2023-11-21T03:51:26;31.05;;;15.98;;
151;SDS011;68;48.792;9.164;2023-11-21T03:53:53;31.15;;;16.20;;
151;SDS011;68;48.792;9.164;2023-11-21T03:56:20;30.38;;;15.48;;
151;SDS011;68;48.792;9.164;2023-11-21T03:58:46;29.15;;;14.73;;
151;SDS011;68;48.792;9.164;2023-11-21T04:01:18;31.92;;;14.43;;
151;SDS011;68;48.792;9.164;2023-11-21T04:03:46;28.60;;;14.30;;
151;SDS011;68;48.792;9.164;2023-11-21T04:06:15;30.60;;;15.48;;
151;SDS011;68;48.792;9.164;2023-11-21T04:08:42;29.23;;;14.77;;
151;SDS011;68;48.792;9.164;2023-11-21T04:11:09;30.70;;;13.98;;
151;SDS011;68;48.792;9.164;2023-11-21T04:13:36;29.38;;;14.77;;
151;SDS011;68;48.792;9.164;2023-11-21T04:16:03;31.42;;;15.82;;
151;SDS011;68;48.792;9.164;2023-11-21T04:18:31;29.50;;;14.55;;
151;SDS011;68;48.792;9.164;2023-11-21T04:20:58;29.25;;;16.33;;
151;SDS011;68;48.792;9.164;2023-11-21T04:23:28;32.08;;;16.35;;
151;SDS011;68;48.792;9.164;2023-11-21T04:25:55;30.13;;;15.00;;
151;SDS011;68;48.792;9.164;2023-11-21T04:28:22;34.97;;;18.80;;
151;SDS011;68;48.792;9.164;2023-11-21T04:30:49;32.55;;;15.15;;
151;SDS011;68;48.792;9.164;2023-11-21T04:33:16;36.85;;;16.95;;
151;SDS011;68;48.792;9.164;2023-11-21T04:35:43;31.35;;;17.10;;
151;SDS011;68;48.792;9.164;2023-11-21T04:38:09;30.77;;;15.05;;
151;SDS011;68;48.792;9.164;2023-11-21T04:40:38;29.98;;;16.90;;
151;SDS011;68;48.792;9.164;2023-11-21T04:43:05;32.63;;;14.57;;
151;SDS011;68;48.792;9.164;2023-11-21T04:45:32;29.05;;;14.45;;
151;SDS011;68;48.792;9.164;2023-11-21T04:47:59;27.83;;;14.52;;
151;SDS011;68;48.792;9.164;2023-11-21T04:50:25;28.88;;;15.43;;
151;SDS011;68;48.792;9.164;2023-11-21T04:52:52;27.08;;;12.88;;
151;SDS011;68;48.792;9.164;2023-11-21T04:55:19;29.48;;;14.75;;
151;SDS011;68;48.792;9.164;2023-11-21T04:57:47;30.77;;;13.68;;
151;SDS011;68;48.792;9.164;2023-11-21T05:00:14;27.90;;;13.82;;
151;SDS011;68;48.792;9.164;2023-11-21T05:02:41;33.50;;;18.67;;
151;SDS011;68;48.792;9.164;2023-11-21T05:05:09;31.20;;;17.25;;
151;SDS011;68;48.792;9.164;2023-11-21T05:07:36;29.98;;;14.95;;
151;SDS011;68;48.792;9.164;2023-11-21T05:10:04;30.92;;;16.90;;
151;SDS011;68;48.792;9.164;2023-11-21T05:12:33;30.95;;;15.68;;
151;SDS011;68;48.792;9.164;2023-11-21T05:15:04;31.05;;;15.60;;
151;SDS011;68;48.792;9.164;2023-11-21T05:17:34;27.45;;;13.95;;
151;SDS011;68;48.792;9.164;2023-11-21T05:20:01;33.92;;;14.07;;
151;SDS011;68;48.792;9.164;2023-11-21T05:22:33;32.63;;;18.17;;
151;SDS011;68;48.792;9.164;2023-11-21T05:25:00;30.20;;;16.45;;
151;SDS011;68;48.792;9.164;2023-11-21T05:27:28;30.63;;;17.38;;
151;SDS011;68;48.792;9.164;2023-11-21T05:29:54;29.38;;;16.33;;
151;SDS011;68;48.792;9.164;2023-11-21T05:32:22;30.70;;;16.02;;
151;SDS011;68;48.792;9.164;2023-11-21T05:34:49;37.58;;;16.95;;
151;SDS011;68;48.792;9.164;2023-11-21T05:37:16;30.00;;;14.50;;
151;SDS011;68;48.792;9.164;2023-11-21T05:39:43;30.05;;;16.33;;
151;SDS011;68;48.792;9.164;2023-11-21T05:42:10;30.38;;;15.07;;
151;SDS011;68;48.792;9.164;2023-11-21T05:44:37;32.45;;;16.48;;
151;SDS011;68;48.792;9.164;2023-11-21T05:47:07;30.30;;;17.25;;
151;SDS011;68;48.792;9.164;2023-11-21T05:49:35;31.13;;;15.95;;
151;SDS011;68;48.792;9.164;2023-11-21T05:52:02;31.50;;;14.13;;
151;SDS011;68;48.792;9.164;2023-11-21T05:54:30;32.45;;;16.48;;
151;SDS011;68;48.792;9.164;2023-11-21T05:56:56;31.55;;;16.67;;
151;SDS011;68;48.792;9.164;2023-11-21T05:59:23;30.23;;;15.90;;
151;SDS011;68;48.792;9.164;2023-11-21T06:01:50;29.48;;;15.90;;
151;SDS011;68;48.792;9.164;2023-11-21T06:04:17;32.13;;;18.45;;
151;SDS011;68;48.792;9.164;2023-11-21T06:06:45;30.58;;;18.10;;
151;SDS011;68;48.792;9.164;2023-11-21T06:09:12;29.45;;;15.05;;
151;SDS011;68;48.792;9.164;2023-11-21T06:11:38;30.58;;;16.10;;
151;SDS011;68;48.792;9.164;2023-11-21T06:14:05;28.77;;;14.20;;
151;SDS011;68;48.792;9.164;2023-11-21T06:16:34;28.45;;;15.23;;
151;SDS011;68;48.792;9.164;2023-11-21T06:19:01;31.63;;;18.13;;
151;SDS011;68;48.792;9.164;2023-11-21T06:21:28;28.25;;;13.40;;
151;SDS011;68;48.792;9.164;2023-11-21T06:23:56;29.75;;;12.70;;
151;SDS011;68;48.792;9.164;2023-11-21T06:26:23;27.85;;;14.43;;
151;SDS011;68;48.792;9.164;2023-11-21T06:28:50;28.95;;;15.60;;
151;SDS011;68;48.792;9.164;2023-11-21T06:31:17;30.90;;;17.23;;
151;SDS011;68;48.792;9.164;2023-11-21T06:33:44;31.80;;;16.70;;
151;SDS011;68;48.792;9.164;2023-11-21T06:36:11;30.80;;;16.85;;
151;SDS011;68;48.792;9.164;2023-11-21T06:38:38;29.98;;;15.43;;
151;SDS011;68;48.792;9.164;2023-11-21T06:41:06;28.85;;;15.40;;
151;SDS011;68;48.792;9.164;2023-11-21T06:43:33;31.15;;;16.08;;
151;SDS011;68;48.792;9.164;2023-11-21T06:46:01;32.45;;;18.45;;
151;SDS011;68;48.792;9.164;2023-11-21T06:48:29;30.40;;;15.63;;
151;SDS011;68;48.792;9.164;2023-11-21T06:50:56;31.50;;;17.55;;
151;SDS011;68;48.792;9.164;2023-11-21T06:53:23;33.78;;;15.75;;
151;SDS011;68;48.792;9.164;2023-11-21T06:55:49;33.42;;;18.23;;
151;SDS011;68;48.792;9.164;2023-11-21T06:58:17;32.03;;;17.95;;
151;SDS011;68;48.792;9.164;2023-11-21T07:00:44;31.35;;;18.80;;
151;SDS011;68;48.792;9.164;2023-11-21T07:03:13;35.10;;;18.85;;
151;SDS011;68;48.792;9.164;2023-11-21T07:05:40;33.70;;;16.92;;
151;SDS011;68;48.792;9.164;2023-11-21T07:08:07;32.35;;;15.98;;
151;SDS011;68;48.792;9.164;2023-11-21T07:10:34;31.30;;;16.83;;
151;SDS011;68;48.792;9.164;2023-11-21T07:13:01;33.03;;;18.80;;
151;SDS011;68;48.792;9.164;2023-11-21T07:15:30;30.23;;;15.65;;
151;SDS011;68;48.792;9.164;2023-11-21T07:17:56;33.13;;;16.65;;
151;SDS011;68;48.792;9.164;2023-11-21T07:20:23;36.53;;;19.05;;
151;SDS011;68;48.792;9.164;2023-11-21T07:22:50;37.13;;;16.98;;
151;SDS011;68;48.792;9.164;2023-11-21T07:25:17;34.35;;;19.17;;
151;SDS011;68;48.792;9.164;2023-11-21T07:27:43;32.47;;;19.10;;
151;SDS011;68;48.792;9.164;2023-11-21T07:30:11;34.22;;;18.50;;
151;SDS011;68;48.792;9.164;2023-11-21T07:32:40;31.25;;;18.27;;
151;SDS011;68;48.792;9.164;2023-11-21T07:35:07;31.92;;;17.83;;
151;SDS011;68;48.792;9.164;2023-11-21T07:37:34;37.15;;;19.80;;
151;SDS011;68;48.792;9.164;2023-11-21T07:40:01;33.40;;;17.00;;
151;SDS011;68;48.792;9.164;2023-11-21T07:42:28;31.40;;;18.50;;
151;SDS011;68;48.792;9.164;2023-11-21T07:44:54;34.63;;;17.63;;
151;SDS011;68;48.792;9.164;2023-11-21T07:47:21;30.73;;;15.13;;
151;SDS011;68;48.792;9.164;2023-11-21T07:49:53;35.78;;;17.70;;
151;SDS011;68;48.792;9.164;2023-11-21T07:52:21;29.58;;;15.60;;
151;SDS011;68;48.792;9.164;2023-11-21T07:54:47;33.40;;;17.17;;
151;SDS011;68;48.792;9.164;2023-11-21T07:57:14;31.15;;;14.32;;
151;SDS011;68;48.792;9.164;2023-11-21T07:59:41;28.83;;;14.98;;
151;SDS011;68;48.792;9.164;2023-11-21T08:02:08;33.17;;;15.65;;
151;SDS011;68;48.792;9.164;2023-11-21T08:04:34;31.45;;;16.98;;
151;SDS011;68;48.792;9.164;2023-11-21T08:07:03;29.67;;;16.13;;
151;SDS011;68;48.792;9.164;2023-11-21T08:09:30;34.40;;;17.05;;
151;SDS011;68;48.792;9.164;2023-11-21T08:11:58;30.25;;;15.50;;
151;SDS011;68;48.792;9.164;2023-11-21T08:14:25;30.10;;;14.88;;
151;SDS011;68;48.792;9.164;2023-11-21T08:16:52;31.10;;;16.50;;
151;SDS011;68;48.792;9.164;2023-11-21T08:19:22;28.95;;;15.73;;
151;SDS011;68;48.792;9.164;2023-11-21T08:21:50;30.98;;;15.98;;
151;SDS011;68;48.792;9.164;2023-11-21T08:24:20;33.88;;;16.13;;
151;SDS011;68;48.792;9.164;2023-11-21T08:26:47;29.95;;;14.80;;
151;SDS011;68;48.792;9.164;2023-11-21T08:29:14;30.20;;;15.57;;
151;SDS011;68;48.792;9.164;2023-11-21T08:31:41;29.55;;;13.55;;
151;SDS011;68;48.792;9.164;2023-11-21T08:34:09;30.13;;;15.63;;
151;SDS011;68;48.792;9.164;2023-11-21T08:36:40;32.22;;;14.93;;
151;SDS011;68;48.792;9.164;2023-11-21T08:39:07;31.35;;;15.15;;
151;SDS011;68;48.792;9.164;2023-11-21T08:41:36;27.95;;;13.05;;
151;SDS011;68;48.792;9.164;2023-11-21T08:44:03;29.20;;;14.07;;
151;SDS011;68;48.792;9.164;2023-11-21T08:46:31;27.15;;;12.73;;
151;SDS011;68;48.792;9.164;2023-11-21T08:48:58;28.10;;;12.65;;
151;SDS011;68;48.792;9.164;2023-11-21T08:51:26;28.52;;;14.25;;
151;SDS011;68;48.792;9.164;2023-11-21T08:53:53;29.45;;;14.32;;
151;SDS011;68;48.792;9.164;2023-11-21T08:56:24;32.28;;;14.48;;
151;SDS011;68;48.792;9.164;2023-11-21T08:58:52;31.65;;;15.60;;
151;SDS011;68;48.792;9.164;2023-11-21T09:01:18;33.53;;;15.38;;
151;SDS011;68;48.792;9.164;2023-11-21T09:03:46;28.90;;;15.10;;
151;SDS011;68;48.792;9.164;2023-11-21T09:06:13;28.92;;;12.18;;
151;SDS011;68;48.792;9.164;2023-11-21T09:08:39;29.13;;;13.07;;
151;SDS011;68;48.792;9.164;2023-11-21T09:11:06;30.80;;;13.13;;
151;SDS011;68;48.792;9.164;2023-11-21T09:13:34;28.45;;;12.52;;
151;SDS011;68;48.792;9.164;2023-11-21T09:16:02;29.75;;;12.75;;
151;SDS011;68;48.792;9.164;2023-11-21T09:18:30;35.42;;;12.00;;
151;SDS011;68;48.792;9.164;2023-11-21T09:20:57;28.50;;;13.25;;
151;SDS011;68;48.792;9.164;2023-11-21T09:23:24;31.98;;;12.13;;
151;SDS011;68;48.792;9.164;2023-11-21T09:25:51;28.23;;;13.45;;
151;SDS011;68;48.792;9.164;2023-11-21T09:28:21;28.75;;;12.10;;
151;SDS011;68;48.792;9.164;2023-11-21T09:30:48;31.23;;;12.63;;
151;SDS011;68;48.792;9.164;2023-11-21T09:33:17;28.52;;;12.00;;
151;SDS011;68;48.792;9.164;2023-11-21T09:35:44;28.85;;;12.05;;
151;SDS011;68;48.792;9.164;2023-11-21T09:38:11;29.85;;;13.18;;
151;SDS011;68;48.792;9.164;2023-11-21T09:40:38;29.65;;;12.57;;
151;SDS011;68;48.792;9.164;2023-11-21T09:43:05;35.63;;;14.40;;
151;SDS011;68;48.792;9.164;2023-11-21T09:45:41;27.88;;;11.40;;
151;SDS011;68;48.792;9.164;2023-11-21T09:48:12;26.15;;;11.18;;
151;SDS011;68;48.792;9.164;2023-11-21T09:50:40;28.40;;;11.30;;
151;SDS011;68;48.792;9.164;2023-11-21T09:53:11;28.73;;;13.40;;
151;SDS011;68;48.792;9.164;2023-11-21T09:55:43;27.02;;;10.45;;
151;SDS011;68;48.792;9.164;2023-11-21T09:58:11;28.15;;;11.45;;
151;SDS011;68;48.792;9.164;2023-11-21T10:00:40;28.73;;;11.30;;
151;SDS011;68;48.792;9.164;2023-11-21T10:03:07;29.70;;;11.00;;
151;SDS011;68;48.792;9.164;2023-11-21T10:05:34;28.00;;;10.60;;
151;SDS011;68;48.792;9.164;2023-11-21T10:08:03;26.17;;;10.60;;
151;SDS011;68;48.792;9.164;2023-11-21T10:10:33;29.38;;;11.05;;
151;SDS011;68;48.792;9.164;2023-11-21T10:13:01;26.88;;;10.65;;
151;SDS011;68;48.792;9.164;2023-11-21T10:15:31;26.20;;;10.60;;
151;SDS011;68;48.792;9.164;2023-11-21T10:18:02;28.52;;;12.50;;
151;SDS011;68;48.792;9.164;2023-11-21T10:20:31;29.35;;;10.10;;
151;SDS011;68;48.792;9.164;2023-11-21T10:22:58;26.38;;;10.57;;
151;SDS011;68;48.792;9.164;2023-11-21T10:25:28;27.23;;;12.68;;
151;SDS011;68;48.792;9.164;2023-11-21T10:27:57;27.20;;;10.70;;
151;SDS011;68;48.792;9.164;2023-11-21T10:30:27;25.73;;;10.02;;
151;SDS011;68;48.792;9.164;2023-11-21T10:32:58;26.80;;;11.57;;
151;SDS011;68;48.792;9.164;2023-11-21T10:35:38;26.33;;;11.02;;
151;SDS011;68;48.792;9.164;2023-11-21T10:38:06;24.35;;;9.27;;
151;SDS011;68;48.792;9.164;2023-11-21T10:40:38;25.63;;;9.05;;
151;SDS011;68;48.792;9.164;2023-11-21T10:43:06;27.55;;;12.73;;
151;SDS011;68;48.792;9.164;2023-11-21T10:45:34;27.25;;;11.20;;
151;SDS011;68;48.792;9.164;2023-11-21T10:48:04;27.33;;;9.75;;
151;SDS011;68;48.792;9.164;2023-11-21T10:50:32;26.10;;;10.20;;
151;SDS011;68;48.792;9.164;2023-11-21T10:53:01;26.08;;;10.68;;
151;SDS011;68;48.792;9.164;2023-11-21T10:55:28;27.85;;;11.32;;
151;SDS011;68;48.792;9.164;2023-11-21T10:57:58;25.70;;;9.82;;
151;SDS011;68;48.792;9.164;2023-11-21T11:00:27;25.77;;;11.80;;
151;SDS011;68;48.792;9.164;2023-11-21T11:02:54;25.48;;;11.52;;
151;SDS011;68;48.792;9.164;2023-11-21T11:05:22;25.52;;;10.60;;
151;SDS011;68;48.792;9.164;2023-11-21T11:07:51;25.10;;;11.00;;
151;SDS011;68;48.792;9.164;2023-11-21T11:10:25;28.65;;;12.27;;
151;SDS011;68;48.792;9.164;2023-11-21T11:12:52;25.98;;;11.77;;
151;SDS011;68;48.792;9.164;2023-11-21T11:15:21;26.45;;;9.73;;
151;SDS011;68;48.792;9.164;2023-11-21T11:17:49;25.15;;;8.50;;
151;SDS011;68;48.792;9.164;2023-11-21T11:20:16;25.50;;;9.60;;
151;SDS011;68;48.792;9.164;2023-11-21T11:22:47;24.90;;;8.70;;
151;SDS011;68;48.792;9.164;2023-11-21T11:25:40;28.55;;;10.10;;
151;SDS011;68;48.792;9.164;2023-11-21T11:28:17;27.20;;;11.10;;
151;SDS011;68;48.792;9.164;2023-11-21T11:30:50;25.35;;;9.20;;
151;SDS011;68;48.792;9.164;2023-11-21T11:33:34;26.05;;;8.98;;
151;SDS011;68;48.792;9.164;2023-11-21T11:36:06;24.75;;;9.85;;
151;SDS011;68;48.792;9.164;2023-11-21T11:38:39;24.17;;;8.45;;
151;SDS011;68;48.792;9.164;2023-11-21T11:41:12;26.45;;;10.07;;
151;SDS011;68;48.792;9.164;2023-11-21T11:43:38;25.85;;;10.90;;
151;SDS011;68;48.792;9.164;2023-11-21T11:46:10;27.02;;;9.20;;
151;SDS011;68;48.792;9.164;2023-11-21T11:48:38;27.20;;;9.73;;
151;SDS011;68;48.792;9.164;2023-11-21T11:51:07;28.17;;;9.27;;
151;SDS011;68;48.792;9.164;2023-11-21T11:53:39;26.98;;;10.02;;
151;SDS011;68;48.792;9.164;2023-11-21T11:56:22;32.35;;;11.32;;
151;SDS011;68;48.792;9.164;2023-11-21T11:58:52;25.63;;;9.13;;
151;SDS011;68;48.792;9.164;2023-11-21T12:01:21;25.48;;;8.38;;
151;SDS011;68;48.792;9.164;2023-11-21T12:06:56;25.38;;;9.95;;
151;SDS011;68;48.792;9.164;2023-11-21T12:09:27;25.75;;;8.48;;
151;SDS011;68;48.792;9.164;2023-11-21T12:11:55;25.88;;;9.77;;
151;SDS011;68;48.792;9.164;2023-11-21T12:14:22;30.15;;;10.63;;
151;SDS011;68;48.792;9.164;2023-11-21T12:16:51;29.50;;;10.00;;
151;SDS011;68;48.792;9.164;2023-11-21T12:19:18;26.70;;;10.52;;
151;SDS011;68;48.792;9.164;2023-11-21T12:21:45;26.30;;;9.75;;
151;SDS011;68;48.792;9.164;2023-11-21T12:24:13;29.08;;;11.15;;
151;SDS011;68;48.792;9.164;2023-11-21T12:26:41;28.35;;;10.40;;
151;SDS011;68;48.792;9.164;2023-11-21T12:29:09;25.08;;;9.68;;
151;SDS011;68;48.792;9.164;2023-11-21T12:31:35;27.05;;;9.15;;
151;SDS011;68;48.792;9.164;2023-11-21T12:34:04;26.33;;;9.85;;
151;SDS011;68;48.792;9.164;2023-11-21T12:36:31;25.40;;;9.75;;
151;SDS011;68;48.792;9.164;2023-11-21T12:38:59;27.02;;;10.95;;
151;SDS011;68;48.792;9.164;2023-11-21T12:41:27;27.08;;;11.13;;
151;SDS011;68;48.792;9.164;2023-11-21T12:43:55;24.85;;;8.65;;
151;SDS011;68;48.792;9.164;2023-11-21T12:46:22;25.33;;;10.18;;
151;SDS011;68;48.792;9.164;2023-11-21T12:48:51;25.13;;;9.52;;
151;SDS011;68;48.792;9.164;2023-11-21T12:51:19;23.95;;;9.13;;
151;SDS011;68;48.792;9.164;2023-11-21T12:53:47;24.15;;;8.80;;
151;SDS011;68;48.792;9.164;2023-11-21T12:56:15;24.23;;;9.02;;
151;SDS011;68;48.792;9.164;2023-11-21T12:58:43;25.70;;;9.63;;
151;SDS011;68;48.792;9.164;2023-11-21T13:01:12;26.48;;;10.52;;
151;SDS011;68;48.792;9.164;2023-11-21T13:03:44;26.30;;;10.18;;
151;SDS011;68;48.792;9.164;2023-11-21T13:06:13;26.33;;;9.85;;
151;SDS011;68;48.792;9.164;2023-11-21T13:08:43;25.00;;;9.35;;
151;SDS011;68;48.792;9.164;2023-11-21T13:11:10;25.80;;;9.25;;
151;SDS011;68;48.792;9.164;2023-11-21T13:13:39;24.52;;;8.80;;
151;SDS011;68;48.792;9.164;2023-11-21T13:16:07;25.55;;;9.05;;
151;SDS011;68;48.792;9.164;2023-11-21T13:18:34;23.88;;;7.75;;
151;SDS011;68;48.792;9.164;2023-11-21T13:21:02;25.55;;;9.00;;
151;SDS011;68;48.792;9.164;2023-11-21T13:23:35;23.92;;;8.38;;
151;SDS011;68;48.792;9.164;2023-11-21T13:26:04;24.00;;;7.63;;
151;SDS011;68;48.792;9.164;2023-11-21T13:28:31;24.60;;;8.77;;
151;SDS011;68;48.792;9.164;2023-11-21T13:30:59;25.15;;;9.75;;
151;SDS011;68;48.792;9.164;2023-11-21T13:33:34;28.13;;;10.35;;
151;SDS011;68;48.792;9.164;2023-11-21T13:36:03;26.58;;;11.63;;
151;SDS011;68;48.792;9.164;2023-11-21T13:38:32;25.75;;;10.10;;
151;SDS011;68;48.792;9.164;2023-11-21T13:41:01;29.73;;;12.82;;
151;SDS011;68;48.792;9.164;2023-11-21T13:43:33;29.60;;;13.57;;
151;SDS011;68;48.792;9.164;2023-11-21T13:46:02;29.33;;;12.63;;
151;SDS011;68;48.792;9.164;2023-11-21T13:48:38;27.08;;;11.60;;
151;SDS011;68;48.792;9.164;2023-11-21T13:51:08;30.60;;;14.93;;
151;SDS011;68;48.792;9.164;2023-11-21T13:53:42;28.75;;;14.18;;
151;SDS011;68;48.792;9.164;2023-11-21T13:56:09;28.60;;;13.07;;
151;SDS011;68;48.792;9.164;2023-11-21T13:58:39;31.88;;;15.05;;
151;SDS011;68;48.792;9.164;2023-11-21T14:01:11;34.42;;;16.13;;
151;SDS011;68;48.792;9.164;2023-11-21T14:03:57;31.52;;;16.20;;
151;SDS011;68;48.792;9.164;2023-11-21T14:06:33;29.42;;;14.52;;
151;SDS011;68;48.792;9.164;2023-11-21T14:09:07;29.98;;;16.63;;
151;SDS011;68;48.792;9.164;2023-11-21T14:11:34;29.85;;;15.48;;
151;SDS011;68;48.792;9.164;2023-11-21T14:14:04;32.50;;;15.10;;
151;SDS011;68;48.792;9.164;2023-11-21T14:16:31;31.67;;;15.60;;
151;SDS011;68;48.792;9.164;2023-11-21T14:18:58;32.60;;;15.90;;
151;SDS011;68;48.792;9.164;2023-11-21T14:21:34;32.90;;;15.73;;
151;SDS011;68;48.792;9.164;2023-11-21T14:24:01;32.03;;;16.35;;
151;SDS011;68;48.792;9.164;2023-11-21T14:26:28;32.88;;;16.92;;
151;SDS011;68;48.792;9.164;2023-11-21T14:28:55;29.90;;;15.75;;
151;SDS011;68;48.792;9.164;2023-11-21T14:31:24;31.65;;;17.45;;
151;SDS011;68;48.792;9.164;2023-11-21T14:33:51;33.17;;;16.92;;
151;SDS011;68;48.792;9.164;2023-11-21T14:36:18;29.88;;;15.88;;
151;SDS011;68;48.792;9.164;2023-11-21T14:38:45;32.22;;;18.33;;
151;SDS011;68;48.792;9.164;2023-11-21T14:41:12;30.10;;;17.38;;
151;SDS011;68;48.792;9.164;2023-11-21T14:43:39;30.73;;;17.73;;
151;SDS011;68;48.792;9.164;2023-11-21T14:46:06;33.78;;;16.63;;
151;SDS011;68;48.792;9.164;2023-11-21T14:48:40;32.20;;;16.42;;
151;SDS011;68;48.792;9.164;2023-11-21T14:51:08;32.15;;;17.60;;
151;SDS011;68;48.792;9.164;2023-11-21T14:53:52;32.50;;;17.67;;
151;SDS011;68;48.792;9.164;2023-11-21T14:56:19;29.55;;;15.68;;
151;SDS011;68;48.792;9.164;2023-11-21T14:58:51;32.10;;;18.35;;
151;SDS011;68;48.792;9.164;2023-11-21T15:01:18;32.78;;;18.70;;
151;SDS011;68;48.792;9.164;2023-11-21T15:03:57;34.00;;;19.50;;
151;SDS011;68;48.792;9.164;2023-11-21T15:06:23;35.38;;;16.88;;
151;SDS011;68;48.792;9.164;2023-11-21T15:08:55;30.38;;;16.77;;
151;SDS011;68;48.792;9.164;2023-11-21T15:11:55;31.70;;;16.88;;
151;SDS011;68;48.792;9.164;2023-11-21T15:14:28;33.10;;;19.70;;
151;SDS011;68;48.792;9.164;2023-11-21T15:16:56;31.98;;;17.23;;
151;SDS011;68;48.792;9.164;2023-11-21T15:19:26;33.50;;;18.70;;
151;SDS011;68;48.792;9.164;2023-11-21T15:21:53;37.58;;;21.60;;
151;SDS011;68;48.792;9.164;2023-11-21T15:24:20;43.35;;;19.13;;
151;SDS011;68;48.792;9.164;2023-11-21T15:26:47;34.53;;;19.08;;
151;SDS011;68;48.792;9.164;2023-11-21T15:29:14;35.30;;;20.70;;
151;SDS011;68;48.792;9.164;2023-11-21T15:31:42;37.22;;;19.75;;
151;SDS011;68;48.792;9.164;2023-11-21T15:34:13;35.75;;;21.38;;
151;SDS011;68;48.792;9.164;2023-11-21T15:36:41;37.10;;;21.13;;
151;SDS011;68;48.792;9.164;2023-11-21T15:39:09;42.97;;;21.35;;
151;SDS011;68;48.792;9.164;2023-11-21T15:41:36;37.30;;;22.05;;